Nakhon Pathom, Thailand
Current Conditions -  °F | °C
As of 6:00 PM on Monday 22 Dec 2014 (Local Time) from VTBD Reporting Station
Clear Clear  
Wind Chill: 81°   Ceiling: Unl
Heat Index: 81°   Visibility: 5mi
Dew Point: 57°   Wind: 8mph
Humidity: 45%   Direction: 360°N
Pressure: 29.85"   Gusts: NA
Location:  13.82°N, 100.06°E
Report Text: VTBD 221100Z 36007KT 320V040 8000 NSC 27/14 Q1011 NOSIG
Loading
Personal Weather Stations






























Interactive Weather Map New forecast layout! Learn more

10-Day Weather Forecast

Advertisements
Track Severe Weather on mobile